createdAt,value
2018-07-16T00:02:23.814Z,15.50
2018-07-16T00:04:58.029Z,15.50
2018-07-16T00:07:31.806Z,15.50
2018-07-16T00:10:06.214Z,15.50
2018-07-16T00:12:40.075Z,15.30
2018-07-16T00:15:14.036Z,15.30
2018-07-16T00:17:48.000Z,15.30
2018-07-16T00:20:21.847Z,15.30
2018-07-16T00:22:55.958Z,15.30
2018-07-16T00:25:29.859Z,15.30
2018-07-16T00:28:04.231Z,15.30
2018-07-16T00:30:38.064Z,15.20
2018-07-16T00:33:11.939Z,15.20
2018-07-16T00:35:46.099Z,15.10
2018-07-16T00:38:20.255Z,15.00
2018-07-16T00:40:53.959Z,15.00
2018-07-16T00:43:27.939Z,14.90
2018-07-16T00:46:01.882Z,14.90
2018-07-16T00:48:35.778Z,14.90
2018-07-16T00:51:09.903Z,14.90
2018-07-16T00:53:43.949Z,14.90
2018-07-16T00:56:18.137Z,14.80
2018-07-16T00:58:51.992Z,14.70
2018-07-16T01:01:25.938Z,14.80
2018-07-16T01:04:00.346Z,14.80
2018-07-16T01:06:34.460Z,14.80
2018-07-16T01:09:09.018Z,14.80
2018-07-16T01:11:43.098Z,14.60
2018-07-16T01:14:17.293Z,14.60
2018-07-16T01:16:51.195Z,14.60
2018-07-16T01:19:25.214Z,14.60
2018-07-16T01:21:59.965Z,14.50
2018-07-16T01:24:33.883Z,14.50
2018-07-16T01:27:08.002Z,14.50
2018-07-16T01:29:42.075Z,14.40
2018-07-16T01:32:15.993Z,14.30
2018-07-16T01:34:49.805Z,14.20
2018-07-16T01:37:23.871Z,14.20
2018-07-16T01:39:57.964Z,14.20
2018-07-16T01:42:32.194Z,14.30
2018-07-16T01:45:07.183Z,14.20
2018-07-16T01:47:41.235Z,14.20
2018-07-16T01:52:49.390Z,14.20
2018-07-16T01:55:23.422Z,14.10
2018-07-16T01:57:57.440Z,14.00
2018-07-16T02:00:31.460Z,14.00
2018-07-16T02:03:05.535Z,14.00
2018-07-16T02:05:39.655Z,14.10
2018-07-16T02:08:13.665Z,14.10
2018-07-16T02:10:47.684Z,14.10
2018-07-16T02:13:21.908Z,14.10
2018-07-16T02:15:55.726Z,14.00
2018-07-16T02:18:29.792Z,14.00
2018-07-16T02:21:03.748Z,14.00
2018-07-16T02:23:37.763Z,14.00
2018-07-16T02:26:11.783Z,13.90
2018-07-16T02:28:45.779Z,13.80
2018-07-16T02:31:19.790Z,13.80
2018-07-16T02:33:53.799Z,13.70
2018-07-16T02:36:28.066Z,13.70
2018-07-16T02:39:02.355Z,13.60
2018-07-16T02:41:36.283Z,13.60
2018-07-16T02:44:10.365Z,13.60
2018-07-16T02:46:44.784Z,13.60
2018-07-16T02:49:18.910Z,13.60
2018-07-16T02:51:52.994Z,13.60
2018-07-16T02:54:27.211Z,13.60
2018-07-16T02:57:01.133Z,13.60
2018-07-16T02:59:35.292Z,13.50
2018-07-16T03:02:09.730Z,13.50
2018-07-16T03:04:43.541Z,13.50
2018-07-16T03:07:17.687Z,13.50
2018-07-16T03:09:51.609Z,13.50
2018-07-16T03:12:25.883Z,13.50
2018-07-16T03:14:59.734Z,13.50
2018-07-16T03:17:34.044Z,13.40
2018-07-16T03:20:08.239Z,13.40
2018-07-16T03:22:42.274Z,13.40
2018-07-16T03:25:17.038Z,13.40
2018-07-16T03:27:51.521Z,13.40
2018-07-16T03:30:25.503Z,13.40
2018-07-16T03:32:59.325Z,13.30
2018-07-16T03:35:33.534Z,13.50
2018-07-16T03:38:08.045Z,13.50
2018-07-16T03:40:41.999Z,13.50
2018-07-16T03:43:16.065Z,13.60
2018-07-16T03:45:50.050Z,13.60
2018-07-16T03:48:24.039Z,13.50
2018-07-16T03:50:58.084Z,13.40
2018-07-16T03:53:32.334Z,13.30
2018-07-16T03:56:06.141Z,13.40
2018-07-16T03:58:40.344Z,13.40
2018-07-16T04:01:14.511Z,13.50
2018-07-16T04:03:48.347Z,13.50
2018-07-16T04:06:22.700Z,13.50
2018-07-16T04:08:56.910Z,13.40
2018-07-16T04:11:30.858Z,13.40
2018-07-16T04:14:04.854Z,13.50
2018-07-16T04:16:38.894Z,13.60
2018-07-16T04:19:12.654Z,13.70
2018-07-16T04:24:20.825Z,13.80
2018-07-16T04:26:54.819Z,13.90
2018-07-16T04:29:28.698Z,13.90
2018-07-16T04:32:07.418Z,14.00
2018-07-16T04:34:41.435Z,14.00
2018-07-16T04:37:15.329Z,14.00
2018-07-16T04:39:49.322Z,14.00
2018-07-16T04:42:23.270Z,14.00
2018-07-16T04:44:57.047Z,14.00
2018-07-16T04:47:31.345Z,14.10
2018-07-16T04:50:05.510Z,14.10
2018-07-16T04:52:39.566Z,14.20
2018-07-16T04:55:13.598Z,14.20
2018-07-16T04:57:47.701Z,14.30
2018-07-16T05:00:21.603Z,14.40
2018-07-16T05:02:55.405Z,14.50
2018-07-16T05:05:29.434Z,14.60
2018-07-16T05:10:37.730Z,14.80
2018-07-16T05:13:11.844Z,14.90
2018-07-16T05:15:45.553Z,15.00
2018-07-16T05:18:19.649Z,15.10
2018-07-16T05:20:53.495Z,15.20
2018-07-16T05:23:27.485Z,15.30
2018-07-16T05:26:01.415Z,15.40
2018-07-16T05:28:35.333Z,15.60
2018-07-16T05:31:09.147Z,15.70
2018-07-16T05:33:43.044Z,15.90
2018-07-16T05:36:17.119Z,16.00
2018-07-16T05:38:50.903Z,16.10
2018-07-16T05:41:24.856Z,16.20
2018-07-16T05:43:58.771Z,16.30
2018-07-16T05:46:32.895Z,16.50
2018-07-16T05:51:40.996Z,16.70
2018-07-16T05:54:15.154Z,16.90
2018-07-16T05:56:49.184Z,17.00
2018-07-16T05:59:23.210Z,17.20
2018-07-16T06:01:57.145Z,17.30
2018-07-16T06:04:30.936Z,17.50
2018-07-16T06:07:04.844Z,17.60
2018-07-16T06:09:38.638Z,17.80
2018-07-16T06:12:12.521Z,17.90
2018-07-16T06:14:46.420Z,18.10
2018-07-16T06:17:20.152Z,18.20
2018-07-16T06:19:54.264Z,18.50
2018-07-16T06:22:28.694Z,18.80
2018-07-16T06:25:02.739Z,19.00
2018-07-16T06:27:41.119Z,19.20
2018-07-16T06:30:15.065Z,19.30
2018-07-16T06:32:48.795Z,19.60
2018-07-16T06:35:22.724Z,19.70
2018-07-16T06:37:56.747Z,19.90
2018-07-16T06:40:30.951Z,20.00
2018-07-16T06:43:05.076Z,20.20
2018-07-16T06:45:39.099Z,20.30
2018-07-16T06:48:12.999Z,20.40
2018-07-16T06:50:47.024Z,20.50
2018-07-16T06:53:21.055Z,20.70
2018-07-16T06:55:55.019Z,20.80
2018-07-16T06:58:29.187Z,20.90
2018-07-16T07:01:03.216Z,21.00
2018-07-16T07:03:37.076Z,21.10
2018-07-16T07:06:11.021Z,21.20
2018-07-16T07:08:45.113Z,21.30
2018-07-16T07:11:18.954Z,21.40
2018-07-16T07:13:52.772Z,21.40
2018-07-16T07:16:26.674Z,21.50
2018-07-16T07:19:00.660Z,21.60
2018-07-16T07:21:34.851Z,21.70
2018-07-16T07:24:08.995Z,21.80
2018-07-16T07:26:43.159Z,21.90
2018-07-16T07:29:17.221Z,22.00
2018-07-16T07:31:51.005Z,22.00
2018-07-16T07:34:24.986Z,22.10
2018-07-16T07:36:58.885Z,22.20
2018-07-16T07:39:32.818Z,22.20
2018-07-16T07:42:06.939Z,22.30
2018-07-16T07:47:14.951Z,22.50
2018-07-16T07:49:48.852Z,22.60
2018-07-16T07:52:22.859Z,22.70
2018-07-16T07:54:57.239Z,22.70
2018-07-16T07:57:31.395Z,22.80
2018-07-16T08:00:06.089Z,22.90
2018-07-16T08:02:40.139Z,23.00
2018-07-16T08:05:14.052Z,23.00
2018-07-16T08:07:47.906Z,23.00
2018-07-16T08:10:22.045Z,23.10
2018-07-16T08:12:56.039Z,23.10
2018-07-16T08:15:30.472Z,23.20
2018-07-16T08:18:04.576Z,23.30
2018-07-16T08:20:39.074Z,23.40
2018-07-16T08:23:12.974Z,23.50
2018-07-16T08:25:47.114Z,23.50
2018-07-16T08:28:21.545Z,23.60
2018-07-16T08:30:55.454Z,23.60
2018-07-16T08:33:29.652Z,23.70
2018-07-16T08:36:03.625Z,23.70
2018-07-16T08:38:38.059Z,23.80
2018-07-16T08:41:12.155Z,23.90
2018-07-16T08:43:46.285Z,24.00
2018-07-16T08:46:20.467Z,24.00
2018-07-16T08:48:55.020Z,24.10
2018-07-16T08:51:29.356Z,24.10
2018-07-16T08:54:03.454Z,24.20
2018-07-16T08:56:37.276Z,24.30
2018-07-16T08:59:11.263Z,24.40
2018-07-16T09:01:45.300Z,24.50
2018-07-16T09:04:19.502Z,24.50
2018-07-16T09:06:53.429Z,24.60
2018-07-16T09:09:27.337Z,24.70
2018-07-16T09:12:01.454Z,24.80
2018-07-16T09:14:35.334Z,24.80
2018-07-16T09:17:09.255Z,24.90
2018-07-16T09:19:43.135Z,25.00
2018-07-16T09:22:16.988Z,25.10
2018-07-16T09:24:50.874Z,25.20
2018-07-16T09:27:24.791Z,25.20
2018-07-16T09:29:58.821Z,25.20
2018-07-16T09:32:32.538Z,25.30
2018-07-16T09:35:06.466Z,25.30
2018-07-16T09:37:40.509Z,25.30
2018-07-16T09:40:14.633Z,25.40
2018-07-16T09:42:48.544Z,25.60
2018-07-16T09:45:22.480Z,25.60
2018-07-16T09:47:56.444Z,25.70
2018-07-16T09:50:30.949Z,25.80
2018-07-16T09:53:04.824Z,25.90
2018-07-16T09:55:38.835Z,26.00
2018-07-16T09:58:12.943Z,26.00
2018-07-16T10:00:52.290Z,26.00
2018-07-16T10:03:26.334Z,26.10
2018-07-16T10:06:00.349Z,26.20
2018-07-16T10:08:34.505Z,26.30
2018-07-16T10:11:08.545Z,26.20
2018-07-16T10:13:42.769Z,26.30
2018-07-16T10:16:16.739Z,26.30
2018-07-16T10:18:50.754Z,26.30
2018-07-16T10:21:24.536Z,26.40
2018-07-16T10:26:32.478Z,26.60
2018-07-16T10:29:06.609Z,26.70
2018-07-16T10:31:40.669Z,26.70
2018-07-16T10:34:14.624Z,26.80
2018-07-16T10:36:48.766Z,26.90
2018-07-16T10:39:22.575Z,26.90
2018-07-16T10:41:56.527Z,26.90
2018-07-16T10:44:30.415Z,26.90
2018-07-16T10:47:04.400Z,26.90
2018-07-16T10:49:38.594Z,27.10
2018-07-16T10:52:12.434Z,27.10
2018-07-16T10:54:46.601Z,27.20
2018-07-16T10:57:20.541Z,27.10
2018-07-16T10:59:55.824Z,27.10
2018-07-16T11:02:29.886Z,27.10
2018-07-16T11:05:03.943Z,27.10
2018-07-16T11:07:37.750Z,27.10
2018-07-16T11:10:11.692Z,27.20
2018-07-16T11:12:45.753Z,27.30
2018-07-16T11:15:19.809Z,27.40
2018-07-16T11:17:53.669Z,27.40
2018-07-16T11:20:27.725Z,27.50
2018-07-16T11:23:01.826Z,27.50
2018-07-16T11:28:13.705Z,27.40
2018-07-16T11:33:22.008Z,27.30
2018-07-16T11:35:55.984Z,27.40
2018-07-16T11:38:29.774Z,27.30
2018-07-16T11:41:03.744Z,27.30
2018-07-16T11:43:37.540Z,27.30
2018-07-16T11:46:11.404Z,27.20
2018-07-16T11:48:45.718Z,27.30
2018-07-16T11:51:19.494Z,27.40
2018-07-16T11:53:53.353Z,27.40
2018-07-16T11:56:27.409Z,27.50
2018-07-16T11:59:01.696Z,27.60
2018-07-16T12:01:35.655Z,27.70
2018-07-16T12:04:09.897Z,27.70
2018-07-16T12:06:43.879Z,27.70
2018-07-16T12:11:51.569Z,27.80
2018-07-16T12:14:25.874Z,27.80
2018-07-16T12:16:59.934Z,27.80
2018-07-16T12:19:33.772Z,27.90
2018-07-16T12:22:07.864Z,28.00
2018-07-16T12:24:41.964Z,28.10
2018-07-16T12:27:15.829Z,28.10
2018-07-16T12:29:49.941Z,28.20
2018-07-16T12:32:23.675Z,28.30
2018-07-16T12:34:58.040Z,28.40
2018-07-16T12:37:32.090Z,28.50
2018-07-16T12:40:06.234Z,28.40
2018-07-16T12:42:40.266Z,28.30
2018-07-16T12:45:14.489Z,28.30
2018-07-16T12:47:48.464Z,28.30
2018-07-16T12:52:56.384Z,28.40
2018-07-16T12:55:30.382Z,28.50
2018-07-16T12:58:04.894Z,28.50
2018-07-16T13:00:38.739Z,28.60
2018-07-16T13:03:13.024Z,28.80
2018-07-16T13:05:46.880Z,29.10
2018-07-16T13:08:21.075Z,29.20
2018-07-16T13:10:55.694Z,29.40
2018-07-16T13:13:29.580Z,29.90
2018-07-16T13:16:03.559Z,30.70
2018-07-16T13:18:38.432Z,31.30
2018-07-16T13:21:12.451Z,31.80
2018-07-16T13:23:46.304Z,32.00
2018-07-16T13:26:20.323Z,32.20
2018-07-16T13:28:54.227Z,32.00
2018-07-16T13:31:28.165Z,31.80
2018-07-16T13:34:02.191Z,31.60
2018-07-16T13:39:10.789Z,31.10
2018-07-16T13:41:44.711Z,31.10
2018-07-16T13:44:18.869Z,31.10
2018-07-16T13:46:52.811Z,30.90
2018-07-16T13:49:27.020Z,30.80
2018-07-16T13:52:01.278Z,30.60
2018-07-16T13:54:35.199Z,30.60
2018-07-16T13:57:09.484Z,30.40
2018-07-16T13:59:43.404Z,30.20
2018-07-16T14:02:17.519Z,30.30
2018-07-16T14:04:51.474Z,30.30
2018-07-16T14:07:25.676Z,30.20
2018-07-16T14:09:59.878Z,30.30
2018-07-16T14:12:33.925Z,30.60
2018-07-16T14:17:41.735Z,30.90
2018-07-16T14:20:16.229Z,31.00
2018-07-16T14:22:50.364Z,31.20
2018-07-16T14:25:24.479Z,31.40
2018-07-16T14:27:58.767Z,31.70
2018-07-16T14:30:32.745Z,32.00
2018-07-16T14:33:06.765Z,32.40
2018-07-16T14:35:40.936Z,32.50
2018-07-16T14:38:15.459Z,32.70
2018-07-16T14:40:49.490Z,32.20
2018-07-16T14:43:23.384Z,32.10
2018-07-16T14:45:57.379Z,31.90
2018-07-16T14:48:31.851Z,31.70
2018-07-16T14:51:05.930Z,31.50
2018-07-16T14:53:39.956Z,31.40
2018-07-16T14:56:14.095Z,31.20
2018-07-16T14:58:48.152Z,31.10
2018-07-16T15:01:22.154Z,31.10
2018-07-16T15:03:56.026Z,30.90
2018-07-16T15:06:30.040Z,30.80
2018-07-16T15:09:06.476Z,30.90
2018-07-16T15:11:40.625Z,30.80
2018-07-16T15:14:14.545Z,30.80
2018-07-16T15:16:48.573Z,30.90
2018-07-16T15:19:22.506Z,31.00
2018-07-16T15:21:56.409Z,30.90
2018-07-16T15:24:30.654Z,31.10
2018-07-16T15:27:04.911Z,31.20
2018-07-16T15:29:38.965Z,31.30
2018-07-16T15:32:12.729Z,31.30
2018-07-16T15:34:46.849Z,31.40
2018-07-16T15:37:21.469Z,31.50
2018-07-16T15:39:55.310Z,31.60
2018-07-16T15:45:03.195Z,31.70
2018-07-16T15:47:37.273Z,32.00
2018-07-16T15:50:11.164Z,32.20
2018-07-16T15:52:45.655Z,32.50
2018-07-16T15:55:19.539Z,32.40
2018-07-16T15:57:53.443Z,32.40
2018-07-16T16:00:27.422Z,32.40
2018-07-16T16:03:01.489Z,32.60
2018-07-16T16:05:38.752Z,32.60
2018-07-16T16:08:12.622Z,32.60
2018-07-16T16:10:46.675Z,32.90
2018-07-16T16:13:20.708Z,33.10
2018-07-16T16:15:54.624Z,33.40
2018-07-16T16:18:28.608Z,33.50
2018-07-16T16:21:02.802Z,33.30
2018-07-16T16:23:36.834Z,33.40
2018-07-16T16:28:44.917Z,33.80
2018-07-16T16:31:19.791Z,34.10
2018-07-16T16:33:53.893Z,35.20
2018-07-16T16:39:02.395Z,37.60
2018-07-16T16:41:36.307Z,38.50
2018-07-16T16:44:10.359Z,38.70
2018-07-16T16:46:44.423Z,38.70
2018-07-16T16:49:18.388Z,38.70
2018-07-16T16:54:26.628Z,38.50
2018-07-16T16:57:00.379Z,37.80
2018-07-16T17:02:08.159Z,36.90
2018-07-16T17:04:42.474Z,36.20
2018-07-16T17:07:16.714Z,35.70
2018-07-16T17:12:24.640Z,34.30
2018-07-16T17:14:58.826Z,33.30
2018-07-16T17:20:07.561Z,31.90
2018-07-16T17:22:42.266Z,31.40
2018-07-16T17:25:17.248Z,30.90
2018-07-16T17:27:51.433Z,30.50
2018-07-16T17:32:59.344Z,29.90
2018-07-16T17:35:33.582Z,29.70
2018-07-16T17:38:07.755Z,29.50
2018-07-16T17:40:41.763Z,29.30
2018-07-16T17:43:15.626Z,29.00
2018-07-16T17:45:49.779Z,28.80
2018-07-16T17:48:23.811Z,28.70
2018-07-16T17:50:57.721Z,28.50
2018-07-16T17:53:32.066Z,28.40
2018-07-16T17:56:06.087Z,28.30
2018-07-16T17:58:40.372Z,28.20
2018-07-16T18:01:14.757Z,28.10
2018-07-16T18:03:48.898Z,27.90
2018-07-16T18:06:23.139Z,27.70
2018-07-16T18:08:57.310Z,27.60
2018-07-16T18:11:32.138Z,27.50
2018-07-16T18:14:06.261Z,27.40
2018-07-16T18:16:40.320Z,27.30
2018-07-16T18:19:14.299Z,27.20
2018-07-16T18:21:48.426Z,27.10
2018-07-16T18:24:22.466Z,27.00
2018-07-16T18:26:56.427Z,26.90
2018-07-16T18:29:30.673Z,26.80
2018-07-16T18:32:05.033Z,26.60
2018-07-16T18:34:39.090Z,26.50
2018-07-16T18:39:47.468Z,26.20
2018-07-16T18:42:21.472Z,26.10
2018-07-16T18:44:55.507Z,26.00
2018-07-16T18:47:29.604Z,25.90
2018-07-16T18:50:04.480Z,25.80
2018-07-16T18:52:38.770Z,25.70
2018-07-16T18:55:13.228Z,25.70
2018-07-16T19:02:55.868Z,25.50
2018-07-16T19:05:30.159Z,25.50
2018-07-16T19:08:04.521Z,25.40
2018-07-16T19:10:39.429Z,25.40
2018-07-16T19:13:13.829Z,25.30
2018-07-16T19:18:22.458Z,25.10
2018-07-16T19:20:56.878Z,25.00
2018-07-16T19:23:30.945Z,24.90
2018-07-16T19:26:05.438Z,24.80
2018-07-16T19:28:39.849Z,24.80
2018-07-16T19:31:14.304Z,24.60
2018-07-16T19:33:48.376Z,24.50
2018-07-16T19:36:22.894Z,24.40
2018-07-16T19:38:57.156Z,24.30
2018-07-16T19:41:31.075Z,24.10
2018-07-16T19:44:05.024Z,24.10
2018-07-16T19:46:39.531Z,23.90
2018-07-16T19:49:13.515Z,23.80
2018-07-16T19:51:47.698Z,23.70
2018-07-16T19:54:21.645Z,23.60
2018-07-16T19:56:55.825Z,23.50
2018-07-16T19:59:29.909Z,23.40
2018-07-16T20:02:04.169Z,23.20
2018-07-16T20:04:38.491Z,23.00
2018-07-16T20:07:12.699Z,22.90
2018-07-16T20:09:46.965Z,22.80
2018-07-16T20:12:29.857Z,22.70
2018-07-16T20:15:05.159Z,22.60
2018-07-16T20:17:39.046Z,22.50
2018-07-16T20:20:13.301Z,22.50
2018-07-16T20:22:47.249Z,22.40
2018-07-16T20:25:21.504Z,22.30
2018-07-16T20:27:55.765Z,22.30
2018-07-16T20:30:29.700Z,22.20
2018-07-16T20:33:03.675Z,22.10
2018-07-16T20:35:37.590Z,22.00
2018-07-16T20:38:12.130Z,22.00
2018-07-16T20:40:46.809Z,21.90
2018-07-16T20:43:20.760Z,21.80
2018-07-16T20:45:55.095Z,21.80
2018-07-16T20:48:29.304Z,21.70
2018-07-16T20:51:03.097Z,21.70
2018-07-16T20:53:37.163Z,21.60
2018-07-16T20:56:11.228Z,21.60
2018-07-16T20:58:45.301Z,21.50
2018-07-16T21:01:19.641Z,21.40
2018-07-16T21:03:53.412Z,21.40
2018-07-16T21:06:27.511Z,21.30
2018-07-16T21:09:01.627Z,21.20
2018-07-16T21:11:35.616Z,21.00
2018-07-16T21:14:09.454Z,21.00
2018-07-16T21:16:43.359Z,20.90
2018-07-16T21:19:17.222Z,20.80
2018-07-16T21:21:51.290Z,20.80
2018-07-16T21:24:25.253Z,20.70
2018-07-16T21:26:59.214Z,20.70
2018-07-16T21:29:33.190Z,20.70
2018-07-16T21:32:07.236Z,20.60
2018-07-16T21:34:41.054Z,20.60
2018-07-16T21:37:15.474Z,20.50
2018-07-16T21:39:49.541Z,20.50
2018-07-16T21:42:23.636Z,20.50
2018-07-16T21:44:57.573Z,20.50
2018-07-16T21:47:31.715Z,20.50
2018-07-16T21:50:05.605Z,20.40
2018-07-16T21:52:39.564Z,20.20
2018-07-16T21:55:13.891Z,20.20
2018-07-16T21:57:48.056Z,20.10
2018-07-16T22:00:30.050Z,20.00
2018-07-16T22:03:04.163Z,19.90
2018-07-16T22:05:38.031Z,20.00
2018-07-16T22:08:12.024Z,19.90
2018-07-16T22:10:45.931Z,19.90
2018-07-16T22:13:19.738Z,19.90
2018-07-16T22:15:53.735Z,19.90
2018-07-16T22:18:27.831Z,19.80
2018-07-16T22:21:01.880Z,19.80
2018-07-16T22:23:35.937Z,19.70
2018-07-16T22:26:10.170Z,19.70
2018-07-16T22:28:44.172Z,19.60
2018-07-16T22:31:18.069Z,19.60
2018-07-16T22:33:52.462Z,19.60
2018-07-16T22:36:26.663Z,19.60
2018-07-16T22:39:00.413Z,19.50
2018-07-16T22:41:34.464Z,19.50
2018-07-16T22:44:08.383Z,19.50
2018-07-16T22:46:42.651Z,19.50
2018-07-16T22:49:16.483Z,19.50
2018-07-16T22:51:50.701Z,19.40
2018-07-16T22:54:24.469Z,19.40
2018-07-16T22:56:58.348Z,19.30
2018-07-16T22:59:32.234Z,19.30
2018-07-16T23:02:06.160Z,19.30
2018-07-16T23:04:40.429Z,19.20
2018-07-16T23:07:14.453Z,19.10
2018-07-16T23:09:48.471Z,19.00
2018-07-16T23:12:22.579Z,19.00
2018-07-16T23:14:56.438Z,19.00
2018-07-16T23:20:04.176Z,18.80
2018-07-16T23:22:47.394Z,18.80
2018-07-16T23:25:21.779Z,18.80
2018-07-16T23:27:55.860Z,18.80
2018-07-16T23:30:30.103Z,18.70
2018-07-16T23:33:03.965Z,18.70
2018-07-16T23:35:37.780Z,18.60
2018-07-16T23:38:11.599Z,18.50
2018-07-16T23:40:45.758Z,18.50
2018-07-16T23:43:19.732Z,18.50
2018-07-16T23:45:53.783Z,18.50
2018-07-16T23:48:28.114Z,18.30
2018-07-16T23:51:02.094Z,18.20
2018-07-16T23:53:35.963Z,18.10
2018-07-16T23:56:09.952Z,18.10
2018-07-16T23:58:44.073Z,18.00
